sensor_id;sensor_type;location;lat;lon;timestamp;P1;durP1;ratioP1;P2;durP2;ratioP2
10717;SDS011;13513;42.700;23.124;2023-10-19T00:00:40;9.30;;;7.53;;
10717;SDS011;13513;42.700;23.124;2023-10-19T00:03:13;9.53;;;6.83;;
10717;SDS011;13513;42.700;23.124;2023-10-19T00:05:41;13.23;;;7.20;;
10717;SDS011;13513;42.700;23.124;2023-10-19T00:08:19;11.73;;;7.03;;
10717;SDS011;13513;42.700;23.124;2023-10-19T00:10:48;12.70;;;7.63;;
10717;SDS011;13513;42.700;23.124;2023-10-19T00:13:21;9.17;;;8.03;;
10717;SDS011;13513;42.700;23.124;2023-10-19T00:15:48;9.23;;;7.90;;
10717;SDS011;13513;42.700;23.124;2023-10-19T00:18:17;16.77;;;7.50;;
10717;SDS011;13513;42.700;23.124;2023-10-19T00:20:52;9.50;;;7.30;;
10717;SDS011;13513;42.700;23.124;2023-10-19T00:23:38;10.27;;;7.87;;
10717;SDS011;13513;42.700;23.124;2023-10-19T00:26:06;12.47;;;7.90;;
10717;SDS011;13513;42.700;23.124;2023-10-19T00:28:38;9.00;;;7.33;;
10717;SDS011;13513;42.700;23.124;2023-10-19T00:31:06;12.17;;;7.60;;
10717;SDS011;13513;42.700;23.124;2023-10-19T00:33:37;9.53;;;7.37;;
10717;SDS011;13513;42.700;23.124;2023-10-19T00:36:08;8.40;;;7.13;;
10717;SDS011;13513;42.700;23.124;2023-10-19T00:38:38;8.30;;;5.87;;
10717;SDS011;13513;42.700;23.124;2023-10-19T00:41:26;10.30;;;7.10;;
10717;SDS011;13513;42.700;23.124;2023-10-19T00:43:57;9.23;;;6.60;;
10717;SDS011;13513;42.700;23.124;2023-10-19T00:46:38;13.17;;;7.57;;
10717;SDS011;13513;42.700;23.124;2023-10-19T00:49:10;7.20;;;5.60;;
10717;SDS011;13513;42.700;23.124;2023-10-19T00:51:41;10.13;;;6.13;;
10717;SDS011;13513;42.700;23.124;2023-10-19T00:54:20;7.60;;;6.37;;
10717;SDS011;13513;42.700;23.124;2023-10-19T00:57:07;9.67;;;5.83;;
10717;SDS011;13513;42.700;23.124;2023-10-19T00:59:36;7.97;;;6.30;;
10717;SDS011;13513;42.700;23.124;2023-10-19T01:02:16;8.43;;;6.00;;
10717;SDS011;13513;42.700;23.124;2023-10-19T01:04:46;8.83;;;5.83;;
10717;SDS011;13513;42.700;23.124;2023-10-19T01:07:33;9.07;;;6.43;;
10717;SDS011;13513;42.700;23.124;2023-10-19T01:10:03;165.67;;;51.43;;
10717;SDS011;13513;42.700;23.124;2023-10-19T01:12:33;112.27;;;46.63;;
10717;SDS011;13513;42.700;23.124;2023-10-19T01:15:11;18.17;;;10.00;;
10717;SDS011;13513;42.700;23.124;2023-10-19T01:17:48;15.83;;;10.20;;
10717;SDS011;13513;42.700;23.124;2023-10-19T01:20:16;17.30;;;11.30;;
10717;SDS011;13513;42.700;23.124;2023-10-19T01:23:02;15.00;;;9.63;;
10717;SDS011;13513;42.700;23.124;2023-10-19T01:25:45;20.67;;;11.20;;
10717;SDS011;13513;42.700;23.124;2023-10-19T01:28:28;16.97;;;11.57;;
10717;SDS011;13513;42.700;23.124;2023-10-19T01:30:53;18.17;;;13.10;;
10717;SDS011;13513;42.700;23.124;2023-10-19T01:33:21;17.17;;;13.67;;
10717;SDS011;13513;42.700;23.124;2023-10-19T01:35:49;16.43;;;13.57;;
10717;SDS011;13513;42.700;23.124;2023-10-19T01:38:35;16.87;;;13.50;;
10717;SDS011;13513;42.700;23.124;2023-10-19T01:41:03;47.37;;;20.77;;
10717;SDS011;13513;42.700;23.124;2023-10-19T01:43:33;73.70;;;24.67;;
10717;SDS011;13513;42.700;23.124;2023-10-19T01:46:02;48.27;;;19.43;;
10717;SDS011;13513;42.700;23.124;2023-10-19T01:48:42;26.83;;;14.77;;
10717;SDS011;13513;42.700;23.124;2023-10-19T01:51:10;31.23;;;16.77;;
10717;SDS011;13513;42.700;23.124;2023-10-19T01:53:39;25.70;;;16.40;;
10717;SDS011;13513;42.700;23.124;2023-10-19T01:56:11;35.60;;;20.83;;
10717;SDS011;13513;42.700;23.124;2023-10-19T01:58:40;17.87;;;14.80;;
10717;SDS011;13513;42.700;23.124;2023-10-19T02:01:09;16.57;;;11.87;;
10717;SDS011;13513;42.700;23.124;2023-10-19T02:03:41;18.87;;;13.60;;
10717;SDS011;13513;42.700;23.124;2023-10-19T02:06:10;15.60;;;11.93;;
10717;SDS011;13513;42.700;23.124;2023-10-19T02:08:49;15.60;;;12.00;;
10717;SDS011;13513;42.700;23.124;2023-10-19T02:11:20;20.83;;;12.90;;
10717;SDS011;13513;42.700;23.124;2023-10-19T02:13:52;17.43;;;11.93;;
10717;SDS011;13513;42.700;23.124;2023-10-19T02:16:21;13.80;;;11.90;;
10717;SDS011;13513;42.700;23.124;2023-10-19T02:18:49;15.83;;;12.80;;
10717;SDS011;13513;42.700;23.124;2023-10-19T02:21:18;18.00;;;12.20;;
10717;SDS011;13513;42.700;23.124;2023-10-19T02:23:50;15.33;;;12.13;;
10717;SDS011;13513;42.700;23.124;2023-10-19T02:26:18;15.23;;;11.87;;
10717;SDS011;13513;42.700;23.124;2023-10-19T02:28:48;16.97;;;12.40;;
10717;SDS011;13513;42.700;23.124;2023-10-19T02:31:17;16.70;;;13.20;;
10717;SDS011;13513;42.700;23.124;2023-10-19T02:33:47;18.00;;;13.50;;
10717;SDS011;13513;42.700;23.124;2023-10-19T02:36:20;17.53;;;13.33;;
10717;SDS011;13513;42.700;23.124;2023-10-19T02:38:48;18.20;;;13.70;;
10717;SDS011;13513;42.700;23.124;2023-10-19T02:41:16;17.07;;;14.40;;
10717;SDS011;13513;42.700;23.124;2023-10-19T02:43:46;20.67;;;13.63;;
10717;SDS011;13513;42.700;23.124;2023-10-19T02:46:18;18.53;;;14.03;;
10717;SDS011;13513;42.700;23.124;2023-10-19T02:48:46;19.83;;;15.90;;
10717;SDS011;13513;42.700;23.124;2023-10-19T02:51:15;23.43;;;19.00;;
10717;SDS011;13513;42.700;23.124;2023-10-19T02:53:44;24.70;;;18.30;;
10717;SDS011;13513;42.700;23.124;2023-10-19T02:56:13;21.70;;;15.17;;
10717;SDS011;13513;42.700;23.124;2023-10-19T02:58:45;18.63;;;13.67;;
10717;SDS011;13513;42.700;23.124;2023-10-19T03:01:16;18.23;;;14.70;;
10717;SDS011;13513;42.700;23.124;2023-10-19T03:03:47;17.83;;;14.00;;
10717;SDS011;13513;42.700;23.124;2023-10-19T03:06:23;78.73;;;58.20;;
10717;SDS011;13513;42.700;23.124;2023-10-19T03:08:51;22.97;;;16.60;;
10717;SDS011;13513;42.700;23.124;2023-10-19T03:11:20;25.50;;;16.47;;
10717;SDS011;13513;42.700;23.124;2023-10-19T03:13:48;18.17;;;14.57;;
10717;SDS011;13513;42.700;23.124;2023-10-19T03:16:16;20.27;;;14.50;;
10717;SDS011;13513;42.700;23.124;2023-10-19T03:18:46;22.07;;;18.33;;
10717;SDS011;13513;42.700;23.124;2023-10-19T03:21:14;19.83;;;16.10;;
10717;SDS011;13513;42.700;23.124;2023-10-19T03:23:44;20.47;;;15.97;;
10717;SDS011;13513;42.700;23.124;2023-10-19T03:26:12;20.50;;;15.80;;
10717;SDS011;13513;42.700;23.124;2023-10-19T03:28:50;22.03;;;16.17;;
10717;SDS011;13513;42.700;23.124;2023-10-19T03:31:25;19.77;;;15.53;;
10717;SDS011;13513;42.700;23.124;2023-10-19T03:33:53;18.87;;;14.47;;
10717;SDS011;13513;42.700;23.124;2023-10-19T03:36:21;18.93;;;15.23;;
10717;SDS011;13513;42.700;23.124;2023-10-19T03:38:50;17.27;;;14.40;;
10717;SDS011;13513;42.700;23.124;2023-10-19T03:41:19;19.37;;;15.33;;
10717;SDS011;13513;42.700;23.124;2023-10-19T03:43:49;20.90;;;15.83;;
10717;SDS011;13513;42.700;23.124;2023-10-19T03:46:18;20.10;;;14.93;;
10717;SDS011;13513;42.700;23.124;2023-10-19T03:48:50;20.70;;;16.03;;
10717;SDS011;13513;42.700;23.124;2023-10-19T03:51:17;26.17;;;17.63;;
10717;SDS011;13513;42.700;23.124;2023-10-19T03:53:45;20.40;;;16.97;;
10717;SDS011;13513;42.700;23.124;2023-10-19T03:56:14;19.40;;;15.97;;
10717;SDS011;13513;42.700;23.124;2023-10-19T03:58:42;19.07;;;16.73;;
10717;SDS011;13513;42.700;23.124;2023-10-19T04:01:12;20.40;;;16.37;;
10717;SDS011;13513;42.700;23.124;2023-10-19T04:03:41;22.67;;;16.77;;
10717;SDS011;13513;42.700;23.124;2023-10-19T04:06:09;22.77;;;17.60;;
10717;SDS011;13513;42.700;23.124;2023-10-19T04:08:38;23.73;;;16.90;;
10717;SDS011;13513;42.700;23.124;2023-10-19T04:11:08;20.43;;;16.83;;
10717;SDS011;13513;42.700;23.124;2023-10-19T04:13:40;21.30;;;16.77;;
10717;SDS011;13513;42.700;23.124;2023-10-19T04:16:08;18.63;;;15.97;;
10717;SDS011;13513;42.700;23.124;2023-10-19T04:18:36;20.63;;;16.13;;
10717;SDS011;13513;42.700;23.124;2023-10-19T04:21:04;21.13;;;14.97;;
10717;SDS011;13513;42.700;23.124;2023-10-19T04:23:31;19.63;;;16.67;;
10717;SDS011;13513;42.700;23.124;2023-10-19T04:26:00;21.43;;;16.33;;
10717;SDS011;13513;42.700;23.124;2023-10-19T04:28:33;20.50;;;15.20;;
10717;SDS011;13513;42.700;23.124;2023-10-19T04:31:02;19.47;;;15.53;;
10717;SDS011;13513;42.700;23.124;2023-10-19T04:33:31;20.27;;;15.77;;
10717;SDS011;13513;42.700;23.124;2023-10-19T04:36:02;21.07;;;16.53;;
10717;SDS011;13513;42.700;23.124;2023-10-19T04:38:31;24.20;;;15.83;;
10717;SDS011;13513;42.700;23.124;2023-10-19T04:41:10;17.90;;;15.07;;
10717;SDS011;13513;42.700;23.124;2023-10-19T04:43:40;17.30;;;14.63;;
10717;SDS011;13513;42.700;23.124;2023-10-19T04:46:10;20.80;;;15.10;;
10717;SDS011;13513;42.700;23.124;2023-10-19T04:48:35;17.37;;;14.17;;
10717;SDS011;13513;42.700;23.124;2023-10-19T04:51:07;19.00;;;14.60;;
10717;SDS011;13513;42.700;23.124;2023-10-19T04:53:35;20.53;;;15.70;;
10717;SDS011;13513;42.700;23.124;2023-10-19T04:56:04;24.37;;;16.17;;
10717;SDS011;13513;42.700;23.124;2023-10-19T04:58:34;19.80;;;14.53;;
10717;SDS011;13513;42.700;23.124;2023-10-19T05:01:02;20.53;;;15.27;;
10717;SDS011;13513;42.700;23.124;2023-10-19T05:03:30;22.33;;;16.00;;
10717;SDS011;13513;42.700;23.124;2023-10-19T05:05:58;19.50;;;15.20;;
10717;SDS011;13513;42.700;23.124;2023-10-19T05:08:26;20.57;;;16.17;;
10717;SDS011;13513;42.700;23.124;2023-10-19T05:10:54;22.63;;;16.47;;
10717;SDS011;13513;42.700;23.124;2023-10-19T05:13:25;196.33;;;21.77;;
10717;SDS011;13513;42.700;23.124;2023-10-19T05:15:56;35.37;;;17.37;;
10717;SDS011;13513;42.700;23.124;2023-10-19T05:18:25;113.20;;;19.10;;
10717;SDS011;13513;42.700;23.124;2023-10-19T05:20:52;24.93;;;17.60;;
10717;SDS011;13513;42.700;23.124;2023-10-19T05:23:23;48.80;;;18.57;;
10717;SDS011;13513;42.700;23.124;2023-10-19T05:25:59;26.27;;;18.93;;
10717;SDS011;13513;42.700;23.124;2023-10-19T05:28:28;98.53;;;19.50;;
10717;SDS011;13513;42.700;23.124;2023-10-19T05:30:56;40.47;;;19.43;;
10717;SDS011;13513;42.700;23.124;2023-10-19T05:33:31;295.83;;;22.30;;
10717;SDS011;13513;42.700;23.124;2023-10-19T05:35:55;194.37;;;20.00;;
10717;SDS011;13513;42.700;23.124;2023-10-19T05:38:22;104.03;;;19.93;;
10717;SDS011;13513;42.700;23.124;2023-10-19T05:40:50;195.77;;;19.60;;
10717;SDS011;13513;42.700;23.124;2023-10-19T05:43:18;285.10;;;20.07;;
10717;SDS011;13513;42.700;23.124;2023-10-19T05:45:45;121.13;;;20.93;;
10717;SDS011;13513;42.700;23.124;2023-10-19T05:48:14;98.23;;;19.23;;
10717;SDS011;13513;42.700;23.124;2023-10-19T05:50:42;156.87;;;20.13;;
10717;SDS011;13513;42.700;23.124;2023-10-19T05:53:09;314.40;;;26.70;;
10717;SDS011;13513;42.700;23.124;2023-10-19T05:55:37;106.07;;;22.00;;
10717;SDS011;13513;42.700;23.124;2023-10-19T05:58:05;28.40;;;19.90;;
10717;SDS011;13513;42.700;23.124;2023-10-19T06:00:32;30.13;;;18.43;;
10717;SDS011;13513;42.700;23.124;2023-10-19T06:03:00;24.27;;;18.10;;
10717;SDS011;13513;42.700;23.124;2023-10-19T06:05:30;28.23;;;19.60;;
10717;SDS011;13513;42.700;23.124;2023-10-19T06:07:57;21.60;;;17.60;;
10717;SDS011;13513;42.700;23.124;2023-10-19T06:10:26;25.97;;;20.30;;
10717;SDS011;13513;42.700;23.124;2023-10-19T06:12:55;29.63;;;22.30;;
10717;SDS011;13513;42.700;23.124;2023-10-19T06:15:23;26.90;;;20.87;;
10717;SDS011;13513;42.700;23.124;2023-10-19T06:17:51;27.40;;;21.17;;
10717;SDS011;13513;42.700;23.124;2023-10-19T06:20:19;23.20;;;19.23;;
10717;SDS011;13513;42.700;23.124;2023-10-19T06:22:50;21.70;;;18.30;;
10717;SDS011;13513;42.700;23.124;2023-10-19T06:25:21;22.20;;;17.17;;
10717;SDS011;13513;42.700;23.124;2023-10-19T06:27:51;19.70;;;16.20;;
10717;SDS011;13513;42.700;23.124;2023-10-19T06:30:21;22.00;;;15.73;;
10717;SDS011;13513;42.700;23.124;2023-10-19T06:32:49;21.83;;;17.47;;
10717;SDS011;13513;42.700;23.124;2023-10-19T06:35:18;23.17;;;17.93;;
10717;SDS011;13513;42.700;23.124;2023-10-19T06:37:47;21.37;;;16.87;;
10717;SDS011;13513;42.700;23.124;2023-10-19T06:40:17;19.77;;;16.07;;
10717;SDS011;13513;42.700;23.124;2023-10-19T06:42:45;20.10;;;16.23;;
10717;SDS011;13513;42.700;23.124;2023-10-19T06:45:13;19.20;;;15.00;;
10717;SDS011;13513;42.700;23.124;2023-10-19T06:47:45;21.10;;;15.20;;
10717;SDS011;13513;42.700;23.124;2023-10-19T06:50:15;19.87;;;17.00;;
10717;SDS011;13513;42.700;23.124;2023-10-19T06:52:45;21.37;;;17.23;;
10717;SDS011;13513;42.700;23.124;2023-10-19T06:55:14;24.27;;;16.60;;
10717;SDS011;13513;42.700;23.124;2023-10-19T06:57:46;21.37;;;18.00;;
10717;SDS011;13513;42.700;23.124;2023-10-19T07:00:15;24.07;;;18.63;;
10717;SDS011;13513;42.700;23.124;2023-10-19T07:02:46;21.87;;;17.63;;
10717;SDS011;13513;42.700;23.124;2023-10-19T07:05:17;21.45;;;17.02;;
10717;SDS011;13513;42.700;23.124;2023-10-19T07:07:53;17.00;;;14.30;;
10717;SDS011;13513;42.700;23.124;2023-10-19T07:10:22;18.80;;;15.25;;
10717;SDS011;13513;42.700;23.124;2023-10-19T07:12:51;20.07;;;15.30;;
10717;SDS011;13513;42.700;23.124;2023-10-19T07:15:20;18.77;;;15.47;;
10717;SDS011;13513;42.700;23.124;2023-10-19T07:17:50;18.30;;;14.90;;
10717;SDS011;13513;42.700;23.124;2023-10-19T07:20:19;18.60;;;14.37;;
10717;SDS011;13513;42.700;23.124;2023-10-19T07:23:02;18.30;;;14.37;;
10717;SDS011;13513;42.700;23.124;2023-10-19T07:25:34;21.90;;;15.40;;
10717;SDS011;13513;42.700;23.124;2023-10-19T07:28:14;18.35;;;14.80;;
10717;SDS011;13513;42.700;23.124;2023-10-19T07:30:42;18.07;;;13.80;;
10717;SDS011;13513;42.700;23.124;2023-10-19T07:33:12;19.62;;;14.05;;
10717;SDS011;13513;42.700;23.124;2023-10-19T07:35:45;22.45;;;14.95;;
10717;SDS011;13513;42.700;23.124;2023-10-19T07:38:13;18.17;;;14.23;;
10717;SDS011;13513;42.700;23.124;2023-10-19T07:40:43;17.03;;;13.07;;
10717;SDS011;13513;42.700;23.124;2023-10-19T07:43:10;18.90;;;13.38;;
10717;SDS011;13513;42.700;23.124;2023-10-19T07:45:38;14.73;;;12.73;;
10717;SDS011;13513;42.700;23.124;2023-10-19T07:48:06;16.77;;;12.15;;
10717;SDS011;13513;42.700;23.124;2023-10-19T07:50:35;16.82;;;12.35;;
10717;SDS011;13513;42.700;23.124;2023-10-19T07:53:05;14.15;;;11.28;;
10717;SDS011;13513;42.700;23.124;2023-10-19T07:55:35;12.78;;;11.35;;
10717;SDS011;13513;42.700;23.124;2023-10-19T07:58:04;12.50;;;10.85;;
10717;SDS011;13513;42.700;23.124;2023-10-19T08:00:35;11.60;;;9.78;;
10717;SDS011;13513;42.700;23.124;2023-10-19T08:03:04;12.68;;;10.18;;
10717;SDS011;13513;42.700;23.124;2023-10-19T08:05:35;14.40;;;10.85;;
10717;SDS011;13513;42.700;23.124;2023-10-19T08:08:04;10.90;;;9.83;;
10717;SDS011;13513;42.700;23.124;2023-10-19T08:10:31;11.40;;;10.20;;
10717;SDS011;13513;42.700;23.124;2023-10-19T08:13:01;10.45;;;9.35;;
10717;SDS011;13513;42.700;23.124;2023-10-19T08:15:28;9.65;;;8.75;;
10717;SDS011;13513;42.700;23.124;2023-10-19T08:17:56;9.93;;;8.95;;
10717;SDS011;13513;42.700;23.124;2023-10-19T08:20:23;10.35;;;7.75;;
10717;SDS011;13513;42.700;23.124;2023-10-19T08:22:53;8.73;;;7.83;;
10717;SDS011;13513;42.700;23.124;2023-10-19T08:25:23;8.00;;;7.30;;
10717;SDS011;13513;42.700;23.124;2023-10-19T08:27:52;8.30;;;7.30;;
10717;SDS011;13513;42.700;23.124;2023-10-19T08:30:22;8.25;;;7.30;;
10717;SDS011;13513;42.700;23.124;2023-10-19T08:32:50;12.53;;;8.00;;
10717;SDS011;13513;42.700;23.124;2023-10-19T08:35:19;8.73;;;7.55;;
10717;SDS011;13513;42.700;23.124;2023-10-19T08:37:51;12.82;;;7.80;;
10717;SDS011;13513;42.700;23.124;2023-10-19T08:40:19;8.93;;;8.03;;
10717;SDS011;13513;42.700;23.124;2023-10-19T08:42:49;21.17;;;9.25;;
10717;SDS011;13513;42.700;23.124;2023-10-19T08:45:17;9.70;;;7.85;;
10717;SDS011;13513;42.700;23.124;2023-10-19T08:47:49;8.70;;;7.80;;
10717;SDS011;13513;42.700;23.124;2023-10-19T08:50:27;8.43;;;7.35;;
10717;SDS011;13513;42.700;23.124;2023-10-19T08:52:57;9.63;;;7.05;;
10717;SDS011;13513;42.700;23.124;2023-10-19T08:55:28;8.80;;;7.05;;
10717;SDS011;13513;42.700;23.124;2023-10-19T08:57:56;7.10;;;6.30;;
10717;SDS011;13513;42.700;23.124;2023-10-19T09:00:29;8.55;;;7.20;;
10717;SDS011;13513;42.700;23.124;2023-10-19T09:03:13;7.03;;;6.25;;
10717;SDS011;13513;42.700;23.124;2023-10-19T09:05:42;9.98;;;7.17;;
10717;SDS011;13513;42.700;23.124;2023-10-19T09:08:15;6.70;;;5.97;;
10717;SDS011;13513;42.700;23.124;2023-10-19T09:10:44;10.43;;;6.28;;
10717;SDS011;13513;42.700;23.124;2023-10-19T09:13:12;7.33;;;5.65;;
10717;SDS011;13513;42.700;23.124;2023-10-19T09:15:41;6.85;;;5.92;;
10717;SDS011;13513;42.700;23.124;2023-10-19T09:18:12;7.42;;;6.35;;
10717;SDS011;13513;42.700;23.124;2023-10-19T09:20:48;7.87;;;6.55;;
10717;SDS011;13513;42.700;23.124;2023-10-19T09:23:23;9.18;;;6.10;;
10717;SDS011;13513;42.700;23.124;2023-10-19T09:25:55;9.58;;;7.40;;
10717;SDS011;13513;42.700;23.124;2023-10-19T09:28:25;8.53;;;7.72;;
10717;SDS011;13513;42.700;23.124;2023-10-19T09:30:53;8.93;;;7.95;;
10717;SDS011;13513;42.700;23.124;2023-10-19T09:33:21;8.43;;;7.47;;
10717;SDS011;13513;42.700;23.124;2023-10-19T09:35:50;4.62;;;4.05;;
10717;SDS011;13513;42.700;23.124;2023-10-19T09:38:22;6.08;;;5.15;;
10717;SDS011;13513;42.700;23.124;2023-10-19T09:40:52;7.60;;;4.10;;
10717;SDS011;13513;42.700;23.124;2023-10-19T09:46:07;3.72;;;2.35;;
10717;SDS011;13513;42.700;23.124;2023-10-19T09:48:41;3.00;;;2.15;;
10717;SDS011;13513;42.700;23.124;2023-10-19T09:51:11;4.67;;;2.25;;
10717;SDS011;13513;42.700;23.124;2023-10-19T09:53:39;3.70;;;2.00;;
10717;SDS011;13513;42.700;23.124;2023-10-19T09:56:10;7.08;;;4.00;;
10717;SDS011;13513;42.700;23.124;2023-10-19T09:58:40;5.70;;;3.12;;
10717;SDS011;13513;42.700;23.124;2023-10-19T10:01:21;10.53;;;6.62;;
10717;SDS011;13513;42.700;23.124;2023-10-19T10:03:49;16.15;;;10.93;;
10717;SDS011;13513;42.700;23.124;2023-10-19T10:09:20;14.20;;;11.63;;
10717;SDS011;13513;42.700;23.124;2023-10-19T10:11:52;14.73;;;12.43;;
10717;SDS011;13513;42.700;23.124;2023-10-19T10:14:26;17.62;;;13.03;;
10717;SDS011;13513;42.700;23.124;2023-10-19T10:17:04;13.03;;;10.03;;
10717;SDS011;13513;42.700;23.124;2023-10-19T10:19:29;14.35;;;8.10;;
10717;SDS011;13513;42.700;23.124;2023-10-19T10:22:03;6.72;;;3.50;;
10717;SDS011;13513;42.700;23.124;2023-10-19T10:24:44;6.10;;;2.70;;
10717;SDS011;13513;42.700;23.124;2023-10-19T10:27:08;4.17;;;2.90;;
10717;SDS011;13513;42.700;23.124;2023-10-19T10:29:38;5.35;;;3.60;;
10717;SDS011;13513;42.700;23.124;2023-10-19T10:32:17;3.90;;;2.50;;
10717;SDS011;13513;42.700;23.124;2023-10-19T10:34:45;3.70;;;2.30;;
10717;SDS011;13513;42.700;23.124;2023-10-19T10:37:14;6.75;;;2.50;;
10717;SDS011;13513;42.700;23.124;2023-10-19T10:39:41;3.42;;;2.42;;
10717;SDS011;13513;42.700;23.124;2023-10-19T10:42:10;3.60;;;2.10;;
10717;SDS011;13513;42.700;23.124;2023-10-19T10:44:46;4.30;;;2.27;;
10717;SDS011;13513;42.700;23.124;2023-10-19T10:47:19;2.77;;;2.25;;
10717;SDS011;13513;42.700;23.124;2023-10-19T10:49:54;3.35;;;2.47;;
10717;SDS011;13513;42.700;23.124;2023-10-19T10:52:24;2.72;;;2.00;;
10717;SDS011;13513;42.700;23.124;2023-10-19T10:55:09;4.00;;;1.85;;
10717;SDS011;13513;42.700;23.124;2023-10-19T10:57:38;2.87;;;1.98;;
10717;SDS011;13513;42.700;23.124;2023-10-19T11:00:07;3.12;;;2.17;;
10717;SDS011;13513;42.700;23.124;2023-10-19T11:02:43;4.80;;;2.27;;
10717;SDS011;13513;42.700;23.124;2023-10-19T11:05:13;3.62;;;2.15;;
10717;SDS011;13513;42.700;23.124;2023-10-19T11:10:47;6.12;;;2.42;;
10717;SDS011;13513;42.700;23.124;2023-10-19T11:13:22;6.75;;;2.08;;
10717;SDS011;13513;42.700;23.124;2023-10-19T11:15:48;2.67;;;1.77;;
10717;SDS011;13513;42.700;23.124;2023-10-19T11:18:28;1.92;;;1.75;;
10717;SDS011;13513;42.700;23.124;2023-10-19T11:20:58;1.90;;;1.50;;
10717;SDS011;13513;42.700;23.124;2023-10-19T11:23:40;3.80;;;1.95;;
10717;SDS011;13513;42.700;23.124;2023-10-19T11:26:04;2.58;;;2.00;;
10717;SDS011;13513;42.700;23.124;2023-10-19T11:28:33;4.53;;;2.00;;
10717;SDS011;13513;42.700;23.124;2023-10-19T11:31:12;2.17;;;1.60;;
10717;SDS011;13513;42.700;23.124;2023-10-19T11:33:50;6.30;;;1.62;;
10717;SDS011;13513;42.700;23.124;2023-10-19T11:36:19;2.75;;;1.90;;
10717;SDS011;13513;42.700;23.124;2023-10-19T11:38:48;6.15;;;1.85;;
10717;SDS011;13513;42.700;23.124;2023-10-19T11:41:18;5.03;;;1.85;;
10717;SDS011;13513;42.700;23.124;2023-10-19T11:43:46;6.67;;;2.00;;
10717;SDS011;13513;42.700;23.124;2023-10-19T11:46:15;6.62;;;1.92;;
10717;SDS011;13513;42.700;23.124;2023-10-19T11:48:44;1.47;;;1.37;;
10717;SDS011;13513;42.700;23.124;2023-10-19T11:51:12;1.75;;;1.40;;
10717;SDS011;13513;42.700;23.124;2023-10-19T11:53:41;3.42;;;1.30;;
10717;SDS011;13513;42.700;23.124;2023-10-19T11:56:09;1.50;;;1.30;;
10717;SDS011;13513;42.700;23.124;2023-10-19T11:58:42;4.85;;;1.77;;
10717;SDS011;13513;42.700;23.124;2023-10-19T12:01:11;2.85;;;1.50;;
10717;SDS011;13513;42.700;23.124;2023-10-19T12:03:39;2.50;;;1.70;;
10717;SDS011;13513;42.700;23.124;2023-10-19T12:06:09;4.00;;;1.50;;
10717;SDS011;13513;42.700;23.124;2023-10-19T12:08:38;2.52;;;1.50;;
10717;SDS011;13513;42.700;23.124;2023-10-19T12:11:06;4.03;;;1.70;;
10717;SDS011;13513;42.700;23.124;2023-10-19T12:13:38;1.90;;;1.70;;
10717;SDS011;13513;42.700;23.124;2023-10-19T12:16:05;3.92;;;1.90;;
10717;SDS011;13513;42.700;23.124;2023-10-19T12:18:33;1.85;;;1.67;;
10717;SDS011;13513;42.700;23.124;2023-10-19T12:21:00;2.60;;;1.70;;
10717;SDS011;13513;42.700;23.124;2023-10-19T12:23:29;3.77;;;1.60;;
10717;SDS011;13513;42.700;23.124;2023-10-19T12:25:56;1.65;;;1.55;;
10717;SDS011;13513;42.700;23.124;2023-10-19T12:28:26;4.85;;;1.65;;
10717;SDS011;13513;42.700;23.124;2023-10-19T12:30:53;1.82;;;1.52;;
10717;SDS011;13513;42.700;23.124;2023-10-19T12:33:21;4.95;;;1.57;;
10717;SDS011;13513;42.700;23.124;2023-10-19T12:35:49;1.90;;;1.15;;
10717;SDS011;13513;42.700;23.124;2023-10-19T12:38:25;2.20;;;1.50;;
10717;SDS011;13513;42.700;23.124;2023-10-19T12:40:53;1.47;;;1.35;;
10717;SDS011;13513;42.700;23.124;2023-10-19T12:43:21;3.27;;;1.70;;
10717;SDS011;13513;42.700;23.124;2023-10-19T12:45:48;2.45;;;1.40;;
10717;SDS011;13513;42.700;23.124;2023-10-19T12:48:23;2.37;;;1.70;;
10717;SDS011;13513;42.700;23.124;2023-10-19T12:50:52;2.55;;;1.70;;
10717;SDS011;13513;42.700;23.124;2023-10-19T12:53:20;1.72;;;1.62;;
10717;SDS011;13513;42.700;23.124;2023-10-19T12:55:49;2.40;;;1.30;;
10717;SDS011;13513;42.700;23.124;2023-10-19T12:58:18;2.42;;;1.40;;
10717;SDS011;13513;42.700;23.124;2023-10-19T13:00:48;4.83;;;1.35;;
10717;SDS011;13513;42.700;23.124;2023-10-19T13:03:15;2.80;;;1.40;;
10717;SDS011;13513;42.700;23.124;2023-10-19T13:05:44;1.60;;;1.50;;
10717;SDS011;13513;42.700;23.124;2023-10-19T13:08:12;1.80;;;1.30;;
10717;SDS011;13513;42.700;23.124;2023-10-19T13:10:41;6.37;;;1.52;;
10717;SDS011;13513;42.700;23.124;2023-10-19T13:13:11;2.33;;;1.50;;
10717;SDS011;13513;42.700;23.124;2023-10-19T13:15:40;4.22;;;1.42;;
10717;SDS011;13513;42.700;23.124;2023-10-19T13:18:10;1.42;;;1.32;;
10717;SDS011;13513;42.700;23.124;2023-10-19T13:20:40;5.87;;;1.27;;
10717;SDS011;13513;42.700;23.124;2023-10-19T13:23:09;2.50;;;1.50;;
10717;SDS011;13513;42.700;23.124;2023-10-19T13:25:38;4.28;;;1.60;;
10717;SDS011;13513;42.700;23.124;2023-10-19T13:28:12;5.45;;;1.75;;
10717;SDS011;13513;42.700;23.124;2023-10-19T13:30:39;3.17;;;1.50;;
10717;SDS011;13513;42.700;23.124;2023-10-19T13:33:09;3.70;;;1.55;;
10717;SDS011;13513;42.700;23.124;2023-10-19T13:35:37;3.15;;;1.67;;
10717;SDS011;13513;42.700;23.124;2023-10-19T13:38:06;3.17;;;1.57;;
10717;SDS011;13513;42.700;23.124;2023-10-19T13:40:37;1.90;;;1.45;;
10717;SDS011;13513;42.700;23.124;2023-10-19T13:43:06;2.20;;;1.60;;
10717;SDS011;13513;42.700;23.124;2023-10-19T13:45:36;1.50;;;1.40;;
10717;SDS011;13513;42.700;23.124;2023-10-19T13:48:04;3.83;;;1.50;;
10717;SDS011;13513;42.700;23.124;2023-10-19T13:50:32;3.20;;;1.70;;
10717;SDS011;13513;42.700;23.124;2023-10-19T13:53:01;3.52;;;1.47;;
10717;SDS011;13513;42.700;23.124;2023-10-19T13:55:30;2.22;;;1.30;;
10717;SDS011;13513;42.700;23.124;2023-10-19T13:57:59;2.25;;;1.50;;
10717;SDS011;13513;42.700;23.124;2023-10-19T14:00:27;2.08;;;1.60;;
10717;SDS011;13513;42.700;23.124;2023-10-19T14:02:59;1.45;;;1.30;;
10717;SDS011;13513;42.700;23.124;2023-10-19T14:05:28;1.75;;;1.60;;
10717;SDS011;13513;42.700;23.124;2023-10-19T14:07:58;1.77;;;1.40;;
10717;SDS011;13513;42.700;23.124;2023-10-19T14:10:25;2.72;;;1.52;;
10717;SDS011;13513;42.700;23.124;2023-10-19T14:12:53;2.55;;;1.35;;
10717;SDS011;13513;42.700;23.124;2023-10-19T14:15:20;3.22;;;1.55;;
10717;SDS011;13513;42.700;23.124;2023-10-19T14:17:48;3.95;;;1.45;;
10717;SDS011;13513;42.700;23.124;2023-10-19T14:20:16;3.70;;;1.65;;
10717;SDS011;13513;42.700;23.124;2023-10-19T14:22:45;2.02;;;1.42;;
10717;SDS011;13513;42.700;23.124;2023-10-19T14:25:14;3.45;;;1.72;;
10717;SDS011;13513;42.700;23.124;2023-10-19T14:27:45;4.60;;;1.70;;
10717;SDS011;13513;42.700;23.124;2023-10-19T14:30:15;5.67;;;2.30;;
10717;SDS011;13513;42.700;23.124;2023-10-19T14:32:44;4.00;;;1.70;;
10717;SDS011;13513;42.700;23.124;2023-10-19T14:35:16;3.00;;;1.50;;
10717;SDS011;13513;42.700;23.124;2023-10-19T14:37:46;6.70;;;1.62;;
10717;SDS011;13513;42.700;23.124;2023-10-19T14:40:21;4.53;;;1.60;;
10717;SDS011;13513;42.700;23.124;2023-10-19T14:42:50;2.55;;;1.50;;
10717;SDS011;13513;42.700;23.124;2023-10-19T14:45:25;2.37;;;1.72;;
10717;SDS011;13513;42.700;23.124;2023-10-19T14:47:58;6.22;;;2.22;;